Time,TemperatureF,DewpointF,PressureIn,WindDirection,WindDirectionDegrees,WindSpeedMPH,WindSpeedGustMPH,Humidity,HourlyPrecipIn,Conditions,Clouds,dailyrainin,SoftwareType,DateUTC
2013-02-25 00:00:00,37.0,31.0,30.49,North,-999,-999.0,-999.0,80,-99.99,,,-99.99,,2013-02-25 00:00:00,
2013-02-25 00:41:00,37.0,31.0,30.49,North,-999,-999.0,-999.0,80,-99.99,,,-99.99,,2013-02-25 00:41:00,
2013-02-25 00:51:00,37.0,31.0,30.49,North,-999,-999.0,-999.0,80,-99.99,,,-99.99,,2013-02-25 00:51:00,
2013-02-25 01:00:00,40.0,35.0,30.49,North,-999,-999.0,-999.0,81,-99.99,,,-99.99,,2013-02-25 01:00:00,
2013-02-25 01:41:00,40.0,35.0,30.49,North,-999,-999.0,-999.0,81,-99.99,,,-99.99,,2013-02-25 01:41:00,
2013-02-25 01:51:00,40.0,35.0,30.49,North,-999,-999.0,-999.0,81,-99.99,,,-99.99,,2013-02-25 01:51:00,
2013-02-25 02:00:00,40.0,32.0,30.50,North,-999,-999.0,-999.0,72,-99.99,,,-99.99,,2013-02-25 02:00:00,
2013-02-25 02:41:00,40.0,32.0,30.50,North,-999,-999.0,-999.0,72,-99.99,,,-99.99,,2013-02-25 02:41:00,
2013-02-25 02:51:00,40.0,32.0,30.50,North,-999,-999.0,-999.0,72,-99.99,,,-99.99,,2013-02-25 02:51:00,
2013-02-25 03:00:00,39.0,32.0,30.52,North,-999,-999.0,-999.0,75,-99.99,,,-99.99,,2013-02-25 03:00:00,
2013-02-25 03:41:00,39.0,32.0,30.52,North,-999,-999.0,-999.0,75,-99.99,,,-99.99,,2013-02-25 03:41:00,
2013-02-25 03:51:00,39.0,32.0,30.52,North,-999,-999.0,-999.0,75,-99.99,,,-99.99,,2013-02-25 03:51:00,
2013-02-25 04:00:00,38.0,32.0,30.52,North,-999,-999.0,-999.0,78,-99.99,,,-99.99,,2013-02-25 04:00:00,
2013-02-25 04:41:00,38.0,32.0,30.52,North,-999,-999.0,-999.0,78,-99.99,,,-99.99,,2013-02-25 04:41:00,
2013-02-25 04:51:00,38.0,32.0,30.52,North,-999,-999.0,-999.0,78,-99.99,,,-99.99,,2013-02-25 04:51:00,
2013-02-25 05:00:00,37.0,32.0,30.53,North,-999,-999.0,-999.0,81,-99.99,,,-99.99,,2013-02-25 05:00:00,
2013-02-25 05:41:00,37.0,32.0,30.53,North,-999,-999.0,-999.0,81,-99.99,,,-99.99,,2013-02-25 05:41:00,
2013-02-25 05:52:00,37.0,32.0,30.53,North,-999,-999.0,-999.0,81,-99.99,,,-99.99,,2013-02-25 05:52:00,
2013-02-25 06:00:00,36.0,32.0,30.54,North,-999,-999.0,-999.0,85,-99.99,,,-99.99,,2013-02-25 06:00:00,
2013-02-25 06:41:00,36.0,32.0,30.54,North,-999,-999.0,-999.0,85,-99.99,,,-99.99,,2013-02-25 06:41:00,
2013-02-25 06:51:00,36.0,32.0,30.54,North,-999,-999.0,-999.0,85,-99.99,,,-99.99,,2013-02-25 06:51:00,
2013-02-25 07:00:00,35.0,32.0,30.55,North,-999,-999.0,-999.0,89,-99.99,,,-99.99,,2013-02-25 07:00:00,
2013-02-25 07:41:00,35.0,32.0,30.55,North,-999,-999.0,-999.0,89,-99.99,,,-99.99,,2013-02-25 07:41:00,
2013-02-25 07:51:00,35.0,32.0,30.55,North,-999,-999.0,-999.0,89,-99.99,,,-99.99,,2013-02-25 07:51:00,
2013-02-25 08:00:00,34.0,31.0,30.55,North,-999,-999.0,-999.0,89,-99.99,,,-99.99,,2013-02-25 08:00:00,
2013-02-25 08:41:00,34.0,31.0,30.55,North,-999,-999.0,-999.0,89,-99.99,,,-99.99,,2013-02-25 08:41:00,
2013-02-25 08:51:00,34.0,31.0,30.55,North,-999,-999.0,-999.0,89,-99.99,,,-99.99,,2013-02-25 08:51:00,
2013-02-25 09:00:00,38.0,35.0,30.56,North,-999,-999.0,-999.0,88,-99.99,,,-99.99,,2013-02-25 09:00:00,
2013-02-25 09:41:00,38.0,35.0,30.56,North,-999,-999.0,-999.0,88,-99.99,,,-99.99,,2013-02-25 09:41:00,
2013-02-25 09:51:00,38.0,35.0,30.56,North,-999,-999.0,-999.0,88,-99.99,,,-99.99,,2013-02-25 09:51:00,
2013-02-25 10:00:00,40.0,33.0,30.58,North,-999,-999.0,-999.0,77,-99.99,,,-99.99,,2013-02-25 10:00:00,
2013-02-25 10:41:00,40.0,33.0,30.58,North,-999,-999.0,-999.0,77,-99.99,,,-99.99,,2013-02-25 10:41:00,
2013-02-25 10:52:00,40.0,33.0,30.58,North,-999,-999.0,-999.0,77,-99.99,,,-99.99,,2013-02-25 10:52:00,
2013-02-25 11:00:00,43.0,33.0,30.58,North,-999,-999.0,-999.0,67,-99.99,,,-99.99,,2013-02-25 11:00:00,
2013-02-25 11:41:00,43.0,33.0,30.58,North,-999,-999.0,-999.0,67,-99.99,,,-99.99,,2013-02-25 11:41:00,
2013-02-25 11:52:00,43.0,33.0,30.58,North,-999,-999.0,-999.0,67,-99.99,,,-99.99,,2013-02-25 11:52:00,
2013-02-25 12:00:00,42.0,31.0,30.59,North,-999,-999.0,-999.0,65,-99.99,,,-99.99,,2013-02-25 12:00:00,
2013-02-25 12:41:00,42.0,31.0,30.59,North,-999,-999.0,-999.0,65,-99.99,,,-99.99,,2013-02-25 12:41:00,
2013-02-25 12:52:00,42.0,31.0,30.59,North,-999,-999.0,-999.0,65,-99.99,,,-99.99,,2013-02-25 12:52:00,
2013-02-25 13:00:00,42.0,30.0,30.58,North,-999,-999.0,-999.0,60,-99.99,,,-99.99,,2013-02-25 13:00:00,
2013-02-25 13:41:00,42.0,30.0,30.58,North,-999,-999.0,-999.0,60,-99.99,,,-99.99,,2013-02-25 13:41:00,
2013-02-25 13:51:00,42.0,30.0,30.58,North,-999,-999.0,-999.0,60,-99.99,,,-99.99,,2013-02-25 13:51:00,
2013-02-25 14:00:00,44.0,33.0,30.58,North,-999,-999.0,-999.0,64,-99.99,,,-99.99,,2013-02-25 14:00:00,
2013-02-25 14:41:00,44.0,33.0,30.58,North,-999,-999.0,-999.0,64,-99.99,,,-99.99,,2013-02-25 14:41:00,
2013-02-25 14:51:00,44.0,33.0,30.58,North,-999,-999.0,-999.0,64,-99.99,,,-99.99,,2013-02-25 14:51:00,
2013-02-25 15:00:00,44.0,32.0,30.57,North,-999,-999.0,-999.0,61,-99.99,,,-99.99,,2013-02-25 15:00:00,
2013-02-25 15:41:00,44.0,32.0,30.57,North,-999,-999.0,-999.0,61,-99.99,,,-99.99,,2013-02-25 15:41:00,
2013-02-25 15:51:00,44.0,32.0,30.57,North,-999,-999.0,-999.0,61,-99.99,,,-99.99,,2013-02-25 15:51:00,
2013-02-25 16:00:00,42.0,36.0,30.55,North,-999,-999.0,-999.0,78,-99.99,,,-99.99,,2013-02-25 16:00:00,
2013-02-25 16:41:00,42.0,36.0,30.55,North,-999,-999.0,-999.0,78,-99.99,,,-99.99,,2013-02-25 16:41:00,
2013-02-25 16:51:00,42.0,36.0,30.55,North,-999,-999.0,-999.0,78,-99.99,,,-99.99,,2013-02-25 16:51:00,
2013-02-25 17:00:00,42.0,35.0,30.58,North,-999,-999.0,-999.0,75,-99.99,,,-99.99,,2013-02-25 17:00:00,
2013-02-25 17:41:00,42.0,35.0,30.58,North,-999,-999.0,-999.0,75,-99.99,,,-99.99,,2013-02-25 17:41:00,
2013-02-25 17:51:00,42.0,35.0,30.58,North,-999,-999.0,-999.0,75,-99.99,,,-99.99,,2013-02-25 17:51:00,
2013-02-25 18:00:00,41.0,35.0,30.59,North,-999,-999.0,-999.0,78,-99.99,,,-99.99,,2013-02-25 18:00:00,
2013-02-25 18:41:00,41.0,35.0,30.59,North,-999,-999.0,-999.0,78,-99.99,,,-99.99,,2013-02-25 18:41:00,
2013-02-25 18:51:00,41.0,35.0,30.59,North,-999,-999.0,-999.0,78,-99.99,,,-99.99,,2013-02-25 18:51:00,
2013-02-25 19:00:00,41.0,35.0,30.59,North,-999,-999.0,-999.0,79,-99.99,,,-99.99,,2013-02-25 19:00:00,
2013-02-25 19:41:00,41.0,35.0,30.59,North,-999,-999.0,-999.0,79,-99.99,,,-99.99,,2013-02-25 19:41:00,
2013-02-25 19:52:00,41.0,35.0,30.59,North,-999,-999.0,-999.0,79,-99.99,,,-99.99,,2013-02-25 19:52:00,
2013-02-25 20:00:00,40.0,35.0,30.60,North,-999,-999.0,-999.0,80,-99.99,,,-99.99,,2013-02-25 20:00:00,
2013-02-25 20:41:00,40.0,35.0,30.60,North,-999,-999.0,-999.0,80,-99.99,,,-99.99,,2013-02-25 20:41:00,
2013-02-25 20:52:00,40.0,35.0,30.60,North,-999,-999.0,-999.0,80,-99.99,,,-99.99,,2013-02-25 20:52:00,
2013-02-25 21:00:00,44.0,38.0,30.58,North,-999,-999.0,-999.0,79,-99.99,,,-99.99,,2013-02-25 21:00:00,
2013-02-25 21:41:00,44.0,38.0,30.58,North,-999,-999.0,-999.0,79,-99.99,,,-99.99,,2013-02-25 21:41:00,
2013-02-25 21:51:00,44.0,38.0,30.58,North,-999,-999.0,-999.0,79,-99.99,,,-99.99,,2013-02-25 21:51:00,
2013-02-25 22:00:00,39.0,33.0,30.61,North,-999,-999.0,-999.0,78,-99.99,,,-99.99,,2013-02-25 22:00:00,
2013-02-25 22:31:00,39.0,33.0,30.61,North,-999,-999.0,-999.0,78,-99.99,,,-99.99,,2013-02-25 22:31:00,
2013-02-25 22:41:00,39.0,33.0,30.61,North,-999,-999.0,-999.0,78,-99.99,,,-99.99,,2013-02-25 22:41:00,
2013-02-25 22:51:00,39.0,33.0,30.61,North,-999,-999.0,-999.0,78,-99.99,,,-99.99,,2013-02-25 22:51:00,
2013-02-25 23:00:00,38.0,31.0,30.62,North,-999,-999.0,-999.0,75,-99.99,,,-99.99,,2013-02-25 23:00:00,
2013-02-25 23:41:00,38.0,31.0,30.62,North,-999,-999.0,-999.0,75,-99.99,,,-99.99,,2013-02-25 23:41:00,
2013-02-25 23:51:00,38.0,31.0,30.62,North,-999,-999.0,-999.0,75,-99.99,,,-99.99,,2013-02-25 23:51:00,